Terminal Aerodrome Forecast
Issued by NWS Buffalo, NY

Home | Current Version | Previous Version | Text Only | Print | Product List | Glossary On
Versions: 1 2 3 4 5 6 7 8 9 10 11 12 13 14 15 16 17 18 19 20 21 22 23 24 25 26
071
FTUS41 KBUF 210908 AAA
TAFROC
TAF AMD
KROC 210908Z 2109/2206 25003KT 2SM BR BKN004
     FM211200 25006KT P6SM SCT004
     FM211600 27010G16KT P6SM SKC
     FM212200 29009KT P6SM SKC
     FM220200 24005KT P6SM FEW200=

USA.gov is the U.S. government's official web portal to all federal, state and local government web resources and services.